createdAt,value
2019-02-14T00:00:42.189Z,68.70
2019-02-14T00:03:10.772Z,68.70
2019-02-14T00:05:39.362Z,68.80
2019-02-14T00:08:08.234Z,68.60
2019-02-14T00:10:36.884Z,68.50
2019-02-14T00:13:05.506Z,68.40
2019-02-14T00:15:34.099Z,68.60
2019-02-14T00:18:02.684Z,69.00
2019-02-14T00:20:31.267Z,68.70
2019-02-14T00:22:59.867Z,68.80
2019-02-14T00:25:28.487Z,68.50
2019-02-14T00:27:57.057Z,68.60
2019-02-14T00:30:25.711Z,68.80
2019-02-14T00:32:54.346Z,68.80
2019-02-14T00:35:25.093Z,68.70
2019-02-14T00:37:53.136Z,68.90
2019-02-14T00:40:21.686Z,68.60
2019-02-14T00:42:50.288Z,68.40
2019-02-14T00:45:18.849Z,68.20
2019-02-14T00:47:47.443Z,68.40
2019-02-14T00:50:16.008Z,68.50
2019-02-14T00:52:44.605Z,68.50
2019-02-14T00:55:13.511Z,68.10
2019-02-14T00:57:42.271Z,68.00
2019-02-14T01:00:11.997Z,68.30
2019-02-14T01:02:40.604Z,68.20
2019-02-14T01:05:09.370Z,68.60
2019-02-14T01:07:37.951Z,68.70
2019-02-14T01:10:06.994Z,68.70
2019-02-14T01:12:35.692Z,68.70
2019-02-14T01:15:08.232Z,68.50
2019-02-14T01:17:36.866Z,68.50
2019-02-14T01:20:06.915Z,68.70
2019-02-14T01:22:35.535Z,68.90
2019-02-14T01:25:04.930Z,68.60
2019-02-14T01:27:33.480Z,68.60
2019-02-14T01:30:02.336Z,68.50
2019-02-14T01:32:31.294Z,68.80
2019-02-14T01:34:59.999Z,68.80
2019-02-14T01:37:28.798Z,68.70
2019-02-14T01:39:57.353Z,68.60
2019-02-14T01:42:25.935Z,68.80
2019-02-14T01:44:54.487Z,68.60
2019-02-14T01:47:23.153Z,68.70
2019-02-14T01:49:52.761Z,68.90
2019-02-14T01:52:21.437Z,68.80
2019-02-14T01:54:49.970Z,68.90
2019-02-14T01:57:18.554Z,68.90
2019-02-14T01:59:47.222Z,68.80
2019-02-14T02:02:15.758Z,68.90
2019-02-14T02:04:44.319Z,69.10
2019-02-14T02:07:12.901Z,69.00
2019-02-14T02:09:43.092Z,69.00
2019-02-14T02:12:11.600Z,69.30
2019-02-14T02:14:40.213Z,69.70
2019-02-14T02:17:08.794Z,70.20
2019-02-14T02:19:37.307Z,69.80
2019-02-14T02:22:05.960Z,69.40
2019-02-14T02:24:34.539Z,69.10
2019-02-14T02:27:03.109Z,68.90
2019-02-14T02:29:42.056Z,68.70
2019-02-14T02:32:10.613Z,68.30
2019-02-14T02:34:39.202Z,68.50
2019-02-14T02:37:07.764Z,68.50
2019-02-14T02:39:36.361Z,68.30
2019-02-14T02:42:05.045Z,68.50
2019-02-14T02:44:33.677Z,68.20
2019-02-14T02:47:02.349Z,68.80
2019-02-14T02:49:30.938Z,68.60
2019-02-14T02:51:59.531Z,68.60
2019-02-14T02:54:28.170Z,68.70
2019-02-14T02:56:56.742Z,68.80
2019-02-14T02:59:25.329Z,69.00
2019-02-14T03:01:54.125Z,68.90
2019-02-14T03:04:23.041Z,68.90
2019-02-14T03:06:51.648Z,69.00
2019-02-14T03:09:20.426Z,69.20
2019-02-14T03:11:48.977Z,69.20
2019-02-14T03:14:17.477Z,69.10
2019-02-14T03:16:46.031Z,69.10
2019-02-14T03:19:14.766Z,69.40
2019-02-14T03:21:43.348Z,69.60
2019-02-14T03:24:11.932Z,69.60
2019-02-14T03:26:40.534Z,69.50
2019-02-14T03:29:09.165Z,69.80
2019-02-14T03:31:37.674Z,69.80
2019-02-14T03:34:06.337Z,69.00
2019-02-14T03:36:34.964Z,68.90
2019-02-14T03:39:04.985Z,68.80
2019-02-14T03:41:33.721Z,68.50
2019-02-14T03:44:02.414Z,68.60
2019-02-14T03:46:31.001Z,68.60
2019-02-14T03:48:59.559Z,68.80
2019-02-14T03:51:28.121Z,69.00
2019-02-14T03:53:56.665Z,69.00
2019-02-14T03:56:25.281Z,68.80
2019-02-14T03:58:54.061Z,68.70
2019-02-14T04:01:22.624Z,68.60
2019-02-14T04:03:55.531Z,68.70
2019-02-14T04:06:27.443Z,68.70
2019-02-14T04:08:54.683Z,68.50
2019-02-14T04:11:23.281Z,68.70
2019-02-14T04:13:51.848Z,69.40
2019-02-14T04:16:20.452Z,70.00
2019-02-14T04:18:49.060Z,69.10
2019-02-14T04:21:17.620Z,69.10
2019-02-14T04:23:46.205Z,69.10
2019-02-14T04:26:14.748Z,69.50
2019-02-14T04:28:43.333Z,69.20
2019-02-14T04:31:11.912Z,69.30
2019-02-14T04:33:40.400Z,69.40
2019-02-14T04:36:08.875Z,69.30
2019-02-14T04:38:37.641Z,69.50
2019-02-14T04:41:06.217Z,69.20
2019-02-14T04:43:34.724Z,69.20
2019-02-14T04:46:03.382Z,69.20
2019-02-14T04:48:31.946Z,69.40
2019-02-14T04:51:00.643Z,69.10
2019-02-14T04:53:29.368Z,69.20
2019-02-14T04:55:59.416Z,69.10
2019-02-14T04:58:28.008Z,68.90
2019-02-14T05:00:56.620Z,69.00
2019-02-14T05:03:25.259Z,68.70
2019-02-14T05:05:54.053Z,68.60
2019-02-14T05:08:22.684Z,68.40
2019-02-14T05:10:51.308Z,68.20
2019-02-14T05:13:19.935Z,68.20
2019-02-14T05:15:48.455Z,68.00
2019-02-14T05:18:16.984Z,68.30
2019-02-14T05:20:45.825Z,68.50
2019-02-14T05:23:14.433Z,69.20
2019-02-14T05:25:42.986Z,69.70
2019-02-14T05:28:11.565Z,69.70
2019-02-14T05:30:40.276Z,69.70
2019-02-14T05:33:08.813Z,69.80
2019-02-14T05:35:37.481Z,69.70
2019-02-14T05:38:06.029Z,69.60
2019-02-14T05:40:34.877Z,69.40
2019-02-14T05:43:03.419Z,69.00
2019-02-14T05:45:32.065Z,69.00
2019-02-14T05:48:00.531Z,68.80
2019-02-14T05:50:29.046Z,69.10
2019-02-14T05:52:57.591Z,69.20
2019-02-14T05:55:26.138Z,69.40
2019-02-14T05:57:54.772Z,69.20
2019-02-14T06:00:23.425Z,68.70
2019-02-14T06:02:51.973Z,68.80
2019-02-14T06:05:20.558Z,69.00
2019-02-14T06:07:49.278Z,69.00
2019-02-14T06:10:17.871Z,69.40
2019-02-14T06:12:46.813Z,68.80
2019-02-14T06:15:15.648Z,68.50
2019-02-14T06:17:44.208Z,68.50
2019-02-14T06:20:13.656Z,68.60
2019-02-14T06:22:42.201Z,68.70
2019-02-14T06:25:13.143Z,68.80
2019-02-14T06:27:41.915Z,68.60
2019-02-14T06:30:14.468Z,68.40
2019-02-14T06:32:43.024Z,68.70
2019-02-14T06:35:12.373Z,68.60
2019-02-14T06:37:40.972Z,68.80
2019-02-14T06:40:13.799Z,68.60
2019-02-14T06:42:42.425Z,68.30
2019-02-14T06:45:16.548Z,68.20
2019-02-14T06:47:45.237Z,68.20
2019-02-14T06:50:13.973Z,68.70
2019-02-14T06:52:42.612Z,68.50
2019-02-14T06:55:11.313Z,68.80
2019-02-14T06:57:39.927Z,68.80
2019-02-14T07:00:11.913Z,69.20
2019-02-14T07:02:40.584Z,68.90
2019-02-14T07:05:10.804Z,68.40
2019-02-14T07:07:39.797Z,68.40
2019-02-14T07:10:10.464Z,68.50
2019-02-14T07:12:39.093Z,68.50
2019-02-14T07:15:10.647Z,68.80
2019-02-14T07:17:39.257Z,68.90
2019-02-14T07:20:11.674Z,68.80
2019-02-14T07:22:40.318Z,68.90
2019-02-14T07:25:11.306Z,69.10
2019-02-14T07:27:41.146Z,68.90
2019-02-14T07:30:21.288Z,68.40
2019-02-14T07:32:49.974Z,68.60
2019-02-14T07:35:20.324Z,69.00
2019-02-14T07:37:48.962Z,69.30
2019-02-14T07:40:17.690Z,69.60
2019-02-14T07:42:46.236Z,69.90
2019-02-14T07:45:16.535Z,69.70
2019-02-14T07:47:45.107Z,69.00
2019-02-14T07:50:14.532Z,68.80
2019-02-14T07:52:43.134Z,68.70
2019-02-14T07:55:12.831Z,68.70
2019-02-14T07:57:43.744Z,68.90
2019-02-14T08:00:33.503Z,69.10
2019-02-14T08:03:02.323Z,69.20
2019-02-14T08:05:30.857Z,69.30
2019-02-14T08:08:00.736Z,69.20
2019-02-14T08:10:29.400Z,69.10
2019-02-14T08:13:17.359Z,69.10
2019-02-14T08:15:45.922Z,68.90
2019-02-14T08:18:15.313Z,69.20
2019-02-14T08:20:43.888Z,68.80
2019-02-14T08:23:12.492Z,68.60
2019-02-14T08:25:41.215Z,68.30
2019-02-14T08:28:10.063Z,67.80
2019-02-14T08:30:39.045Z,67.80
2019-02-14T08:33:07.752Z,67.80
2019-02-14T08:35:36.616Z,67.90
2019-02-14T08:38:06.804Z,67.80
2019-02-14T08:40:35.395Z,67.70
2019-02-14T08:43:04.325Z,67.80
2019-02-14T08:45:32.999Z,68.00
2019-02-14T08:48:01.576Z,67.00
2019-02-14T08:50:30.124Z,66.70
2019-02-14T08:52:58.855Z,66.60
2019-02-14T08:55:27.607Z,67.00
2019-02-14T08:57:56.214Z,66.40
2019-02-14T09:00:24.868Z,66.00
2019-02-14T09:02:53.467Z,65.80
2019-02-14T09:05:22.252Z,65.40
2019-02-14T09:07:54.608Z,65.10
2019-02-14T09:10:21.328Z,65.00
2019-02-14T09:12:50.190Z,65.10
2019-02-14T09:15:18.845Z,64.90
2019-02-14T09:17:47.489Z,65.10
2019-02-14T09:20:22.272Z,65.20
2019-02-14T09:22:52.539Z,65.10
2019-02-14T09:25:42.166Z,65.10
2019-02-14T09:28:10.802Z,64.80
2019-02-14T09:30:58.686Z,65.40
2019-02-14T09:33:28.910Z,64.30
2019-02-14T09:35:58.674Z,64.30
2019-02-14T09:38:27.208Z,64.20
2019-02-14T09:40:56.957Z,64.10
2019-02-14T09:43:29.814Z,63.70
2019-02-14T09:45:56.135Z,63.00
2019-02-14T09:48:27.887Z,62.40
2019-02-14T09:50:56.734Z,62.40
2019-02-14T09:53:25.495Z,62.40
2019-02-14T09:55:54.168Z,62.30
2019-02-14T09:58:22.874Z,62.30
2019-02-14T10:00:51.900Z,62.10
2019-02-14T10:03:40.088Z,62.10
2019-02-14T10:06:09.359Z,62.00
2019-02-14T10:08:38.039Z,62.10
2019-02-14T10:11:06.888Z,62.60
2019-02-14T10:13:35.731Z,62.90
2019-02-14T10:16:04.487Z,62.60
2019-02-14T10:18:33.166Z,61.80
2019-02-14T10:21:01.700Z,60.70
2019-02-14T10:23:32.190Z,60.60
2019-02-14T10:26:00.960Z,59.70
2019-02-14T10:28:29.896Z,60.60
2019-02-14T10:30:58.606Z,60.50
2019-02-14T10:33:27.138Z,61.00
2019-02-14T10:35:55.850Z,61.20
2019-02-14T10:38:24.739Z,61.20
2019-02-14T10:40:53.380Z,60.90
2019-02-14T10:43:23.477Z,61.10
2019-02-14T10:45:52.330Z,60.90
2019-02-14T10:48:21.106Z,60.70
2019-02-14T10:50:50.918Z,60.30
2019-02-14T10:53:19.647Z,60.10
2019-02-14T10:55:48.264Z,59.30
2019-02-14T10:58:16.914Z,60.30
2019-02-14T11:00:45.899Z,59.90
2019-02-14T11:03:14.625Z,60.20
2019-02-14T11:05:43.214Z,60.30
2019-02-14T11:08:13.825Z,60.60
2019-02-14T11:10:43.550Z,61.40
2019-02-14T11:13:12.127Z,60.40
2019-02-14T11:15:40.954Z,60.30
2019-02-14T11:18:09.673Z,60.30
2019-02-14T11:20:38.288Z,59.90
2019-02-14T11:23:06.875Z,59.90
2019-02-14T11:25:38.065Z,59.90
2019-02-14T11:28:06.692Z,59.90
2019-02-14T11:30:35.436Z,59.50
2019-02-14T11:33:04.161Z,59.40
2019-02-14T11:35:32.830Z,59.40
2019-02-14T11:38:02.971Z,60.00
2019-02-14T11:40:31.537Z,58.50
2019-02-14T11:43:00.083Z,58.90
2019-02-14T11:45:28.913Z,58.30
2019-02-14T11:47:57.784Z,58.30
2019-02-14T11:50:26.393Z,58.30
2019-02-14T11:52:54.926Z,58.70
2019-02-14T11:55:23.512Z,58.70
2019-02-14T11:57:52.576Z,58.80
2019-02-14T12:00:24.552Z,59.30
2019-02-14T12:02:56.455Z,59.60
2019-02-14T12:05:25.168Z,59.40
2019-02-14T12:07:55.349Z,58.30
2019-02-14T12:10:23.921Z,58.00
2019-02-14T12:13:01.858Z,58.10
2019-02-14T12:15:30.801Z,57.90
2019-02-14T12:17:59.340Z,58.20
2019-02-14T12:20:27.918Z,58.40
2019-02-14T12:22:56.699Z,58.60
2019-02-14T12:25:31.650Z,58.40
2019-02-14T12:28:00.301Z,58.60
2019-02-14T12:30:28.916Z,58.00
2019-02-14T12:32:57.596Z,58.30
2019-02-14T12:35:26.451Z,57.70
2019-02-14T12:37:55.373Z,57.50
2019-02-14T12:40:23.901Z,57.50
2019-02-14T12:42:52.695Z,57.00
2019-02-14T12:45:26.230Z,57.00
2019-02-14T12:47:55.081Z,57.10
2019-02-14T12:50:24.781Z,56.80
2019-02-14T12:52:53.330Z,56.30
2019-02-14T12:55:22.025Z,56.20
2019-02-14T12:57:50.644Z,56.20
2019-02-14T13:00:24.654Z,55.40
2019-02-14T13:02:55.452Z,55.60
2019-02-14T13:05:24.085Z,55.40
2019-02-14T13:07:52.676Z,55.70
2019-02-14T13:10:21.306Z,55.70
2019-02-14T13:12:49.863Z,55.30
2019-02-14T13:15:26.806Z,55.10
2019-02-14T13:17:55.390Z,55.20
2019-02-14T13:20:23.934Z,55.30
2019-02-14T13:22:56.060Z,55.70
2019-02-14T13:25:26.509Z,55.70
2019-02-14T13:27:55.079Z,54.40
2019-02-14T13:30:25.700Z,55.00
2019-02-14T13:32:54.454Z,54.70
2019-02-14T13:35:23.142Z,54.60
2019-02-14T13:37:52.259Z,55.00
2019-02-14T13:40:20.905Z,55.30
2019-02-14T13:42:49.513Z,55.50
2019-02-14T13:45:23.355Z,56.10
2019-02-14T13:47:52.028Z,54.90
2019-02-14T13:50:22.290Z,53.70
2019-02-14T13:52:50.893Z,53.00
2019-02-14T13:55:19.634Z,52.80
2019-02-14T13:57:49.602Z,53.10
2019-02-14T14:00:29.349Z,53.10
2019-02-14T14:02:57.911Z,53.00
2019-02-14T14:05:26.457Z,52.90
2019-02-14T14:07:56.790Z,52.80
2019-02-14T14:10:25.577Z,52.80
2019-02-14T14:12:54.554Z,52.90
2019-02-14T14:15:23.237Z,53.10
2019-02-14T14:17:52.030Z,53.20
2019-02-14T14:20:20.725Z,53.30
2019-02-14T14:22:50.728Z,53.50
2019-02-14T14:25:19.325Z,53.30
2019-02-14T14:28:00.867Z,52.70
2019-02-14T14:30:29.604Z,52.20
2019-02-14T14:32:58.304Z,52.20
2019-02-14T14:35:27.018Z,52.10
2019-02-14T14:37:57.266Z,52.10
2019-02-14T14:40:26.267Z,52.10
2019-02-14T14:43:02.714Z,52.30
2019-02-14T14:45:35.420Z,52.60
2019-02-14T14:48:04.653Z,52.50
2019-02-14T14:50:33.589Z,52.60
2019-02-14T14:53:02.205Z,52.40
2019-02-14T14:55:31.013Z,51.10
2019-02-14T14:57:59.601Z,50.40
2019-02-14T15:00:32.274Z,50.20
2019-02-14T15:03:05.828Z,50.00
2019-02-14T15:05:34.433Z,49.80
2019-02-14T15:08:04.790Z,50.40
2019-02-14T15:10:33.367Z,49.90
2019-02-14T15:13:02.016Z,49.80
2019-02-14T15:15:30.669Z,49.60
2019-02-14T15:17:59.320Z,49.90
2019-02-14T15:20:28.090Z,49.80
2019-02-14T15:22:56.796Z,50.00
2019-02-14T15:25:25.737Z,49.60
2019-02-14T15:27:54.768Z,49.20
2019-02-14T15:30:23.661Z,47.60
2019-02-14T15:32:52.869Z,47.00
2019-02-14T15:35:21.573Z,46.90
2019-02-14T15:37:50.363Z,47.20
2019-02-14T15:40:19.147Z,47.80
2019-02-14T15:42:49.313Z,47.70
2019-02-14T15:45:18.123Z,47.60
2019-02-14T15:47:48.526Z,49.30
2019-02-14T15:50:17.132Z,48.80
2019-02-14T15:52:47.043Z,49.10
2019-02-14T15:55:16.132Z,48.40
2019-02-14T15:57:44.866Z,49.20
2019-02-14T16:02:50.764Z,49.00
2019-02-14T16:05:22.961Z,49.60
2019-02-14T16:07:51.537Z,49.50
2019-02-14T16:10:20.054Z,49.90
2019-02-14T16:12:48.776Z,50.60
2019-02-14T16:15:17.505Z,50.70
2019-02-14T16:17:45.987Z,51.00
2019-02-14T16:20:17.557Z,51.50
2019-02-14T16:22:46.288Z,50.90
2019-02-14T16:25:14.999Z,51.40
2019-02-14T16:27:43.705Z,51.50
2019-02-14T16:30:13.682Z,51.60
2019-02-14T16:32:42.503Z,51.80
2019-02-14T16:35:11.104Z,51.90
2019-02-14T16:37:40.500Z,52.20
2019-02-14T16:40:10.188Z,52.30
2019-02-14T16:42:38.814Z,52.40
2019-02-14T16:45:08.521Z,52.50
2019-02-14T16:47:37.449Z,52.50
2019-02-14T16:50:08.745Z,52.90
2019-02-14T16:52:37.383Z,53.90
2019-02-14T16:55:07.301Z,53.90
2019-02-14T16:57:36.049Z,54.30
2019-02-14T17:00:07.485Z,54.80
2019-02-14T17:02:36.946Z,56.10
2019-02-14T17:05:06.845Z,56.00
2019-02-14T17:07:36.821Z,56.50
2019-02-14T17:10:08.528Z,56.90
2019-02-14T17:12:37.145Z,57.40
2019-02-14T17:15:09.668Z,57.80
2019-02-14T17:17:38.468Z,58.30
2019-02-14T17:20:09.856Z,58.70
2019-02-14T17:22:38.441Z,58.90
2019-02-14T17:25:07.947Z,59.20
2019-02-14T17:27:36.633Z,59.60
2019-02-14T17:30:08.012Z,59.50
2019-02-14T17:32:36.566Z,58.80
2019-02-14T17:35:06.314Z,57.90
2019-02-14T17:37:34.867Z,57.80
2019-02-14T17:40:05.622Z,58.10
2019-02-14T17:42:34.174Z,58.90
2019-02-14T17:45:02.824Z,59.40
2019-02-14T17:47:31.650Z,59.80
2019-02-14T17:50:00.329Z,60.20
2019-02-14T17:52:29.299Z,60.50
2019-02-14T17:54:57.933Z,61.20
2019-02-14T17:57:26.473Z,60.90
2019-02-14T17:59:55.336Z,60.90
2019-02-14T18:02:24.100Z,61.20
2019-02-14T18:04:52.680Z,61.20
2019-02-14T18:07:21.165Z,61.00
2019-02-14T18:09:49.681Z,60.70
2019-02-14T18:12:18.524Z,61.50
2019-02-14T18:14:47.057Z,61.60
2019-02-14T18:17:15.696Z,61.70
2019-02-14T18:19:44.336Z,61.80
2019-02-14T18:22:12.872Z,61.80
2019-02-14T18:24:41.577Z,62.10
2019-02-14T18:27:10.245Z,62.60
2019-02-14T18:29:38.730Z,62.70
2019-02-14T18:32:07.381Z,62.80
2019-02-14T18:34:36.208Z,62.80
2019-02-14T18:37:04.758Z,63.00
2019-02-14T18:39:34.891Z,63.00
2019-02-14T18:42:03.459Z,63.10
2019-02-14T18:44:32.098Z,63.10
2019-02-14T18:47:00.641Z,64.10
2019-02-14T18:49:29.861Z,63.50
2019-02-14T18:51:58.447Z,63.50
2019-02-14T18:54:46.403Z,63.50
2019-02-14T18:57:15.223Z,63.50
2019-02-14T18:59:43.825Z,63.90
2019-02-14T19:02:13.200Z,64.10
2019-02-14T19:05:01.175Z,64.50
2019-02-14T19:07:31.533Z,64.40
2019-02-14T19:09:59.977Z,64.80
2019-02-14T19:12:28.646Z,64.80
2019-02-14T19:14:57.523Z,64.60
2019-02-14T19:17:26.217Z,64.60
2019-02-14T19:19:54.861Z,65.00
2019-02-14T19:22:23.523Z,65.00
2019-02-14T19:24:52.080Z,64.90
2019-02-14T19:27:20.712Z,65.00
2019-02-14T19:29:49.946Z,64.90
2019-02-14T19:32:18.662Z,65.10
2019-02-14T19:34:47.245Z,65.00
2019-02-14T19:37:15.898Z,65.50
2019-02-14T19:39:44.462Z,64.90
2019-02-14T19:42:13.378Z,64.90
2019-02-14T19:44:41.953Z,65.80
2019-02-14T19:47:10.475Z,65.50
2019-02-14T19:49:39.153Z,65.10
2019-02-14T19:52:07.681Z,65.30
2019-02-14T19:54:36.330Z,65.30
2019-02-14T19:57:05.050Z,65.40
2019-02-14T19:59:33.861Z,65.70
2019-02-14T20:02:02.741Z,65.90
2019-02-14T20:04:31.298Z,65.80
2019-02-14T20:06:59.958Z,65.70
2019-02-14T20:09:28.548Z,65.40
2019-02-14T20:11:57.106Z,65.50
2019-02-14T20:14:25.703Z,65.30
2019-02-14T20:16:54.336Z,65.70
2019-02-14T20:19:22.967Z,65.70
2019-02-14T20:21:51.900Z,65.90
2019-02-14T20:24:20.503Z,65.60
2019-02-14T20:26:49.040Z,65.70
2019-02-14T20:29:17.551Z,66.20
2019-02-14T20:31:46.261Z,66.40
2019-02-14T20:34:14.894Z,66.50
2019-02-14T20:36:43.536Z,66.40
2019-02-14T20:39:12.254Z,66.50
2019-02-14T20:41:46.037Z,66.40
2019-02-14T20:44:11.439Z,66.10
2019-02-14T20:46:40.078Z,66.70
2019-02-14T20:49:08.817Z,66.50
2019-02-14T20:51:38.707Z,66.30
2019-02-14T20:54:07.677Z,66.50
2019-02-14T20:56:36.356Z,66.30
2019-02-14T20:59:05.053Z,66.30
2019-02-14T21:01:33.915Z,66.30
2019-02-14T21:04:02.495Z,66.30
2019-02-14T21:06:31.046Z,66.40
2019-02-14T21:08:59.856Z,66.70
2019-02-14T21:11:28.499Z,66.60
2019-02-14T21:13:57.153Z,66.90
2019-02-14T21:16:26.045Z,66.80
2019-02-14T21:18:54.652Z,66.70
2019-02-14T21:21:23.476Z,66.80
2019-02-14T21:23:52.067Z,66.70
2019-02-14T21:26:20.716Z,66.50
2019-02-14T21:28:49.370Z,66.70
2019-02-14T21:31:18.000Z,67.00
2019-02-14T21:33:46.541Z,67.00
2019-02-14T21:36:15.244Z,67.00
2019-02-14T21:38:44.318Z,67.00
2019-02-14T21:41:12.918Z,67.00
2019-02-14T21:43:41.973Z,67.00
2019-02-14T21:46:10.614Z,66.90
2019-02-14T21:48:39.188Z,66.80
2019-02-14T21:51:07.826Z,66.80
2019-02-14T21:53:38.100Z,66.70
2019-02-14T21:56:06.873Z,66.70
2019-02-14T21:58:35.445Z,66.80
2019-02-14T22:01:04.070Z,66.80
2019-02-14T22:03:32.869Z,66.90
2019-02-14T22:06:01.423Z,66.90
2019-02-14T22:08:29.989Z,67.00
2019-02-14T22:10:59.014Z,67.40
2019-02-14T22:13:27.605Z,67.30
2019-02-14T22:15:56.182Z,67.20
2019-02-14T22:18:24.739Z,67.20
2019-02-14T22:20:53.311Z,67.50
2019-02-14T22:23:21.969Z,67.50
2019-02-14T22:25:50.553Z,67.20
2019-02-14T22:28:20.221Z,67.00
2019-02-14T22:30:48.857Z,66.90
2019-02-14T22:33:17.460Z,67.10
2019-02-14T22:35:46.028Z,66.90
2019-02-14T22:38:14.606Z,66.70
2019-02-14T22:40:43.149Z,66.90
2019-02-14T22:43:11.908Z,67.10
2019-02-14T22:45:41.388Z,67.40
2019-02-14T22:48:09.998Z,67.40
2019-02-14T22:50:38.571Z,67.70
2019-02-14T22:53:07.238Z,67.80
2019-02-14T22:55:36.040Z,68.30
2019-02-14T22:58:04.634Z,67.60
2019-02-14T23:00:42.233Z,67.50
2019-02-14T23:03:11.276Z,67.40
2019-02-14T23:05:39.887Z,67.30
2019-02-14T23:08:08.493Z,67.10
2019-02-14T23:10:37.081Z,67.10
2019-02-14T23:13:05.841Z,67.00
2019-02-14T23:15:34.430Z,66.80
2019-02-14T23:18:03.470Z,67.10
2019-02-14T23:20:32.058Z,67.10
2019-02-14T23:23:00.659Z,67.30
2019-02-14T23:25:29.189Z,67.30
2019-02-14T23:27:58.114Z,67.50
2019-02-14T23:30:26.718Z,67.60
2019-02-14T23:32:55.260Z,67.60
2019-02-14T23:35:23.817Z,67.20
2019-02-14T23:37:52.396Z,67.20
2019-02-14T23:40:20.962Z,67.40
2019-02-14T23:42:49.681Z,67.50
2019-02-14T23:45:18.273Z,67.40
2019-02-14T23:47:46.841Z,67.50
2019-02-14T23:50:15.324Z,67.50
2019-02-14T23:52:43.907Z,67.70
2019-02-14T23:55:12.526Z,67.70
2019-02-14T23:57:41.089Z,67.70
